sensor_id;sensor_type;location;lat;lon;timestamp;P1;durP1;ratioP1;P2;durP2;ratioP2
77722;SDS011;67811;42.656;23.394;2023-06-01T00:00:42;19.35;;;6.32;;
77722;SDS011;67811;42.656;23.394;2023-06-01T00:03:07;11.20;;;5.90;;
77722;SDS011;67811;42.656;23.394;2023-06-01T00:05:33;14.05;;;6.53;;
77722;SDS011;67811;42.656;23.394;2023-06-01T00:07:58;17.95;;;7.28;;
77722;SDS011;67811;42.656;23.394;2023-06-01T00:10:23;15.20;;;6.18;;
77722;SDS011;67811;42.656;23.394;2023-06-01T00:12:48;11.07;;;6.20;;
77722;SDS011;67811;42.656;23.394;2023-06-01T00:15:14;10.75;;;5.85;;
77722;SDS011;67811;42.656;23.394;2023-06-01T00:17:39;17.38;;;6.88;;
77722;SDS011;67811;42.656;23.394;2023-06-01T00:20:04;13.98;;;6.45;;
77722;SDS011;67811;42.656;23.394;2023-06-01T00:22:30;13.90;;;6.85;;
77722;SDS011;67811;42.656;23.394;2023-06-01T00:24:55;12.27;;;6.35;;
77722;SDS011;67811;42.656;23.394;2023-06-01T00:27:21;15.38;;;6.80;;
77722;SDS011;67811;42.656;23.394;2023-06-01T00:29:46;13.63;;;6.93;;
77722;SDS011;67811;42.656;23.394;2023-06-01T00:32:11;12.23;;;6.35;;
77722;SDS011;67811;42.656;23.394;2023-06-01T00:34:36;10.73;;;5.82;;
77722;SDS011;67811;42.656;23.394;2023-06-01T00:37:02;13.82;;;6.10;;
77722;SDS011;67811;42.656;23.394;2023-06-01T00:39:27;14.57;;;5.97;;
77722;SDS011;67811;42.656;23.394;2023-06-01T00:41:52;17.77;;;7.05;;
77722;SDS011;67811;42.656;23.394;2023-06-01T00:44:18;15.65;;;6.68;;
77722;SDS011;67811;42.656;23.394;2023-06-01T00:46:43;12.43;;;6.75;;
77722;SDS011;67811;42.656;23.394;2023-06-01T00:49:08;12.52;;;7.32;;
77722;SDS011;67811;42.656;23.394;2023-06-01T00:51:33;18.08;;;8.18;;
77722;SDS011;67811;42.656;23.394;2023-06-01T00:53:59;19.20;;;8.50;;
77722;SDS011;67811;42.656;23.394;2023-06-01T00:56:25;19.50;;;8.25;;
77722;SDS011;67811;42.656;23.394;2023-06-01T00:58:50;18.17;;;9.55;;
77722;SDS011;67811;42.656;23.394;2023-06-01T01:01:15;23.63;;;10.38;;
77722;SDS011;67811;42.656;23.394;2023-06-01T01:03:41;23.45;;;9.75;;
77722;SDS011;67811;42.656;23.394;2023-06-01T01:06:21;20.23;;;9.32;;
77722;SDS011;67811;42.656;23.394;2023-06-01T01:11:36;22.92;;;9.48;;
77722;SDS011;67811;42.656;23.394;2023-06-01T01:16:35;15.52;;;8.35;;
77722;SDS011;67811;42.656;23.394;2023-06-01T01:25:25;14.15;;;7.70;;
77722;SDS011;67811;42.656;23.394;2023-06-01T01:31:01;22.50;;;9.32;;
77722;SDS011;67811;42.656;23.394;2023-06-01T01:33:29;26.67;;;9.13;;
77722;SDS011;67811;42.656;23.394;2023-06-01T01:35:56;20.40;;;9.57;;
77722;SDS011;67811;42.656;23.394;2023-06-01T01:38:21;12.60;;;6.45;;
77722;SDS011;67811;42.656;23.394;2023-06-01T01:40:47;13.73;;;5.65;;
77722;SDS011;67811;42.656;23.394;2023-06-01T01:43:12;17.23;;;6.78;;
77722;SDS011;67811;42.656;23.394;2023-06-01T01:45:38;16.45;;;6.60;;
77722;SDS011;67811;42.656;23.394;2023-06-01T01:48:11;15.50;;;7.13;;
77722;SDS011;67811;42.656;23.394;2023-06-01T01:50:51;12.27;;;7.43;;
77722;SDS011;67811;42.656;23.394;2023-06-01T01:53:21;11.68;;;6.10;;
77722;SDS011;67811;42.656;23.394;2023-06-01T01:55:48;8.73;;;5.88;;
77722;SDS011;67811;42.656;23.394;2023-06-01T01:58:15;18.13;;;6.50;;
77722;SDS011;67811;42.656;23.394;2023-06-01T02:00:42;13.52;;;7.15;;
77722;SDS011;67811;42.656;23.394;2023-06-01T02:03:26;13.52;;;7.03;;
77722;SDS011;67811;42.656;23.394;2023-06-01T02:05:51;16.65;;;8.60;;
77722;SDS011;67811;42.656;23.394;2023-06-01T02:08:16;10.68;;;6.30;;
77722;SDS011;67811;42.656;23.394;2023-06-01T02:10:42;18.40;;;7.82;;
77722;SDS011;67811;42.656;23.394;2023-06-01T02:13:07;15.48;;;7.22;;
77722;SDS011;67811;42.656;23.394;2023-06-01T02:15:32;16.52;;;8.00;;
77722;SDS011;67811;42.656;23.394;2023-06-01T02:17:57;16.63;;;7.60;;
77722;SDS011;67811;42.656;23.394;2023-06-01T02:20:23;18.08;;;8.30;;
77722;SDS011;67811;42.656;23.394;2023-06-01T02:22:48;15.77;;;8.07;;
77722;SDS011;67811;42.656;23.394;2023-06-01T02:25:13;14.82;;;7.13;;
77722;SDS011;67811;42.656;23.394;2023-06-01T02:27:38;15.70;;;7.25;;
77722;SDS011;67811;42.656;23.394;2023-06-01T02:30:04;13.73;;;6.70;;
77722;SDS011;67811;42.656;23.394;2023-06-01T02:32:30;12.32;;;7.45;;
77722;SDS011;67811;42.656;23.394;2023-06-01T02:34:55;21.77;;;7.32;;
77722;SDS011;67811;42.656;23.394;2023-06-01T02:37:20;9.85;;;6.35;;
77722;SDS011;67811;42.656;23.394;2023-06-01T02:39:45;12.60;;;6.35;;
77722;SDS011;67811;42.656;23.394;2023-06-01T02:42:11;13.32;;;6.63;;
77722;SDS011;67811;42.656;23.394;2023-06-01T02:44:36;11.57;;;6.68;;
77722;SDS011;67811;42.656;23.394;2023-06-01T02:47:01;13.68;;;6.03;;
77722;SDS011;67811;42.656;23.394;2023-06-01T02:49:26;13.63;;;5.85;;
77722;SDS011;67811;42.656;23.394;2023-06-01T02:51:51;16.50;;;5.97;;
77722;SDS011;67811;42.656;23.394;2023-06-01T02:54:17;12.25;;;6.95;;
77722;SDS011;67811;42.656;23.394;2023-06-01T02:56:42;9.52;;;6.03;;
77722;SDS011;67811;42.656;23.394;2023-06-01T02:59:07;14.25;;;6.75;;
77722;SDS011;67811;42.656;23.394;2023-06-01T03:01:32;10.85;;;6.38;;
77722;SDS011;67811;42.656;23.394;2023-06-01T03:03:58;9.85;;;5.90;;
77722;SDS011;67811;42.656;23.394;2023-06-01T03:06:23;14.75;;;7.05;;
77722;SDS011;67811;42.656;23.394;2023-06-01T03:08:48;18.75;;;7.85;;
77722;SDS011;67811;42.656;23.394;2023-06-01T03:11:14;19.70;;;9.60;;
77722;SDS011;67811;42.656;23.394;2023-06-01T03:13:39;15.02;;;7.05;;
77722;SDS011;67811;42.656;23.394;2023-06-01T03:16:04;13.93;;;7.63;;
77722;SDS011;67811;42.656;23.394;2023-06-01T03:18:29;16.92;;;8.80;;
77722;SDS011;67811;42.656;23.394;2023-06-01T03:20:55;16.25;;;7.60;;
77722;SDS011;67811;42.656;23.394;2023-06-01T03:23:20;13.65;;;7.53;;
77722;SDS011;67811;42.656;23.394;2023-06-01T03:25:45;16.15;;;7.95;;
77722;SDS011;67811;42.656;23.394;2023-06-01T03:28:10;14.27;;;7.97;;
77722;SDS011;67811;42.656;23.394;2023-06-01T03:30:36;21.35;;;7.60;;
77722;SDS011;67811;42.656;23.394;2023-06-01T03:33:01;9.93;;;6.20;;
77722;SDS011;67811;42.656;23.394;2023-06-01T03:35:26;14.43;;;9.68;;
77722;SDS011;67811;42.656;23.394;2023-06-01T03:37:51;9.00;;;6.03;;
77722;SDS011;67811;42.656;23.394;2023-06-01T03:40:17;12.52;;;7.07;;
77722;SDS011;67811;42.656;23.394;2023-06-01T03:42:46;17.42;;;8.13;;
77722;SDS011;67811;42.656;23.394;2023-06-01T03:45:13;12.90;;;6.47;;
77722;SDS011;67811;42.656;23.394;2023-06-01T03:47:39;13.70;;;7.38;;
77722;SDS011;67811;42.656;23.394;2023-06-01T03:50:05;15.20;;;7.38;;
77722;SDS011;67811;42.656;23.394;2023-06-01T03:52:32;20.10;;;8.77;;
77722;SDS011;67811;42.656;23.394;2023-06-01T03:54:58;17.60;;;8.48;;
77722;SDS011;67811;42.656;23.394;2023-06-01T03:57:24;18.23;;;7.88;;
77722;SDS011;67811;42.656;23.394;2023-06-01T03:59:49;16.38;;;8.55;;
77722;SDS011;67811;42.656;23.394;2023-06-01T04:02:14;16.70;;;8.00;;
77722;SDS011;67811;42.656;23.394;2023-06-01T04:04:40;16.98;;;8.52;;
77722;SDS011;67811;42.656;23.394;2023-06-01T04:07:05;19.30;;;8.57;;
77722;SDS011;67811;42.656;23.394;2023-06-01T04:09:32;17.73;;;8.77;;
77722;SDS011;67811;42.656;23.394;2023-06-01T04:11:57;17.55;;;7.25;;
77722;SDS011;67811;42.656;23.394;2023-06-01T04:14:22;17.25;;;9.15;;
77722;SDS011;67811;42.656;23.394;2023-06-01T04:16:47;18.20;;;9.32;;
77722;SDS011;67811;42.656;23.394;2023-06-01T04:19:13;20.63;;;8.25;;
77722;SDS011;67811;42.656;23.394;2023-06-01T04:21:38;19.95;;;8.30;;
77722;SDS011;67811;42.656;23.394;2023-06-01T04:24:03;19.00;;;8.15;;
77722;SDS011;67811;42.656;23.394;2023-06-01T04:26:29;17.00;;;7.80;;
77722;SDS011;67811;42.656;23.394;2023-06-01T04:28:54;18.30;;;8.65;;
77722;SDS011;67811;42.656;23.394;2023-06-01T04:31:19;16.67;;;7.97;;
77722;SDS011;67811;42.656;23.394;2023-06-01T04:33:45;17.67;;;8.57;;
77722;SDS011;67811;42.656;23.394;2023-06-01T04:36:14;20.38;;;9.07;;
77722;SDS011;67811;42.656;23.394;2023-06-01T04:38:42;19.35;;;9.32;;
77722;SDS011;67811;42.656;23.394;2023-06-01T04:41:08;20.30;;;8.32;;
77722;SDS011;67811;42.656;23.394;2023-06-01T04:43:33;26.23;;;9.25;;
77722;SDS011;67811;42.656;23.394;2023-06-01T04:45:59;17.75;;;8.52;;
77722;SDS011;67811;42.656;23.394;2023-06-01T04:48:24;20.30;;;9.30;;
77722;SDS011;67811;42.656;23.394;2023-06-01T04:50:49;23.65;;;9.48;;
77722;SDS011;67811;42.656;23.394;2023-06-01T04:53:14;20.13;;;8.95;;
77722;SDS011;67811;42.656;23.394;2023-06-01T04:55:40;21.40;;;9.32;;
77722;SDS011;67811;42.656;23.394;2023-06-01T04:58:05;22.08;;;8.85;;
77722;SDS011;67811;42.656;23.394;2023-06-01T05:00:30;26.58;;;10.65;;
77722;SDS011;67811;42.656;23.394;2023-06-01T05:02:56;21.27;;;10.38;;
77722;SDS011;67811;42.656;23.394;2023-06-01T05:05:21;28.73;;;10.45;;
77722;SDS011;67811;42.656;23.394;2023-06-01T05:07:46;21.00;;;9.02;;
77722;SDS011;67811;42.656;23.394;2023-06-01T05:10:12;18.20;;;9.73;;
77722;SDS011;67811;42.656;23.394;2023-06-01T05:12:37;25.08;;;11.55;;
77722;SDS011;67811;42.656;23.394;2023-06-01T05:15:06;23.13;;;10.30;;
77722;SDS011;67811;42.656;23.394;2023-06-01T05:17:32;29.33;;;12.10;;
77722;SDS011;67811;42.656;23.394;2023-06-01T05:19:58;21.02;;;11.00;;
77722;SDS011;67811;42.656;23.394;2023-06-01T05:22:23;19.60;;;10.85;;
77722;SDS011;67811;42.656;23.394;2023-06-01T05:24:49;28.58;;;11.48;;
77722;SDS011;67811;42.656;23.394;2023-06-01T05:27:15;21.13;;;11.05;;
77722;SDS011;67811;42.656;23.394;2023-06-01T05:29:41;26.73;;;10.50;;
77722;SDS011;67811;42.656;23.394;2023-06-01T05:32:06;27.10;;;12.75;;
77722;SDS011;67811;42.656;23.394;2023-06-01T05:34:32;27.08;;;11.30;;
77722;SDS011;67811;42.656;23.394;2023-06-01T05:36:57;23.52;;;10.55;;
77722;SDS011;67811;42.656;23.394;2023-06-01T05:39:22;30.23;;;12.10;;
77722;SDS011;67811;42.656;23.394;2023-06-01T05:41:48;27.70;;;11.45;;
77722;SDS011;67811;42.656;23.394;2023-06-01T05:44:13;25.48;;;12.10;;
77722;SDS011;67811;42.656;23.394;2023-06-01T05:46:38;31.98;;;12.82;;
77722;SDS011;67811;42.656;23.394;2023-06-01T05:49:03;30.08;;;12.85;;
77722;SDS011;67811;42.656;23.394;2023-06-01T05:51:29;26.48;;;12.65;;
77722;SDS011;67811;42.656;23.394;2023-06-01T05:53:55;28.15;;;11.52;;
77722;SDS011;67811;42.656;23.394;2023-06-01T05:56:20;30.85;;;14.02;;
77722;SDS011;67811;42.656;23.394;2023-06-01T05:58:45;27.58;;;12.60;;
77722;SDS011;67811;42.656;23.394;2023-06-01T06:01:11;37.35;;;15.75;;
77722;SDS011;67811;42.656;23.394;2023-06-01T06:03:36;30.45;;;14.27;;
77722;SDS011;67811;42.656;23.394;2023-06-01T06:06:01;30.80;;;15.13;;
77722;SDS011;67811;42.656;23.394;2023-06-01T06:08:27;30.73;;;13.82;;
77722;SDS011;67811;42.656;23.394;2023-06-01T06:10:52;34.13;;;13.18;;
77722;SDS011;67811;42.656;23.394;2023-06-01T06:13:18;33.00;;;14.50;;
77722;SDS011;67811;42.656;23.394;2023-06-01T06:15:43;32.22;;;12.50;;
77722;SDS011;67811;42.656;23.394;2023-06-01T06:18:08;29.25;;;13.70;;
77722;SDS011;67811;42.656;23.394;2023-06-01T06:20:34;29.73;;;12.93;;
77722;SDS011;67811;42.656;23.394;2023-06-01T06:22:59;28.70;;;12.25;;
77722;SDS011;67811;42.656;23.394;2023-06-01T06:25:24;27.00;;;12.05;;
77722;SDS011;67811;42.656;23.394;2023-06-01T06:27:49;28.35;;;12.30;;
77722;SDS011;67811;42.656;23.394;2023-06-01T06:30:15;26.98;;;12.07;;
77722;SDS011;67811;42.656;23.394;2023-06-01T06:32:40;32.00;;;13.85;;
77722;SDS011;67811;42.656;23.394;2023-06-01T06:35:06;25.08;;;12.50;;
77722;SDS011;67811;42.656;23.394;2023-06-01T06:37:31;28.05;;;12.02;;
77722;SDS011;67811;42.656;23.394;2023-06-01T06:39:56;25.08;;;12.23;;
77722;SDS011;67811;42.656;23.394;2023-06-01T06:42:22;31.33;;;11.80;;
77722;SDS011;67811;42.656;23.394;2023-06-01T06:44:48;31.88;;;13.38;;
77722;SDS011;67811;42.656;23.394;2023-06-01T06:47:13;30.13;;;13.48;;
77722;SDS011;67811;42.656;23.394;2023-06-01T06:49:39;26.33;;;11.85;;
77722;SDS011;67811;42.656;23.394;2023-06-01T06:52:04;27.33;;;11.60;;
77722;SDS011;67811;42.656;23.394;2023-06-01T06:54:30;30.88;;;12.30;;
77722;SDS011;67811;42.656;23.394;2023-06-01T06:56:55;32.95;;;13.25;;
77722;SDS011;67811;42.656;23.394;2023-06-01T06:59:20;29.80;;;13.13;;
77722;SDS011;67811;42.656;23.394;2023-06-01T07:01:45;30.52;;;13.48;;
77722;SDS011;67811;42.656;23.394;2023-06-01T07:04:11;33.83;;;14.07;;
77722;SDS011;67811;42.656;23.394;2023-06-01T07:06:36;29.33;;;13.15;;
77722;SDS011;67811;42.656;23.394;2023-06-01T07:09:02;32.17;;;14.52;;
77722;SDS011;67811;42.656;23.394;2023-06-01T07:11:27;32.10;;;13.20;;
77722;SDS011;67811;42.656;23.394;2023-06-01T07:13:54;24.27;;;11.45;;
77722;SDS011;67811;42.656;23.394;2023-06-01T07:16:19;26.83;;;13.48;;
77722;SDS011;67811;42.656;23.394;2023-06-01T07:18:44;28.95;;;13.10;;
77722;SDS011;67811;42.656;23.394;2023-06-01T07:21:09;33.50;;;13.85;;
77722;SDS011;67811;42.656;23.394;2023-06-01T07:23:35;41.30;;;16.58;;
77722;SDS011;67811;42.656;23.394;2023-06-01T07:26:00;41.38;;;16.88;;
77722;SDS011;67811;42.656;23.394;2023-06-01T07:28:25;38.58;;;16.33;;
77722;SDS011;67811;42.656;23.394;2023-06-01T07:30:50;34.42;;;15.63;;
77722;SDS011;67811;42.656;23.394;2023-06-01T07:33:16;53.72;;;19.65;;
77722;SDS011;67811;42.656;23.394;2023-06-01T07:35:41;51.38;;;19.92;;
77722;SDS011;67811;42.656;23.394;2023-06-01T07:38:06;47.03;;;20.85;;
77722;SDS011;67811;42.656;23.394;2023-06-01T07:40:32;48.72;;;20.52;;
77722;SDS011;67811;42.656;23.394;2023-06-01T07:42:57;57.28;;;20.67;;
77722;SDS011;67811;42.656;23.394;2023-06-01T07:45:22;47.25;;;18.42;;
77722;SDS011;67811;42.656;23.394;2023-06-01T07:47:47;43.63;;;19.27;;
77722;SDS011;67811;42.656;23.394;2023-06-01T07:50:13;44.30;;;20.52;;
77722;SDS011;67811;42.656;23.394;2023-06-01T07:52:38;58.75;;;21.48;;
77722;SDS011;67811;42.656;23.394;2023-06-01T07:55:03;45.00;;;18.77;;
77722;SDS011;67811;42.656;23.394;2023-06-01T07:57:29;43.55;;;19.35;;
77722;SDS011;67811;42.656;23.394;2023-06-01T07:59:54;43.72;;;16.75;;
77722;SDS011;67811;42.656;23.394;2023-06-01T08:02:20;41.35;;;18.50;;
77722;SDS011;67811;42.656;23.394;2023-06-01T08:04:45;40.55;;;18.02;;
77722;SDS011;67811;42.656;23.394;2023-06-01T08:07:10;44.25;;;19.33;;
77722;SDS011;67811;42.656;23.394;2023-06-01T08:09:36;46.58;;;19.40;;
77722;SDS011;67811;42.656;23.394;2023-06-01T08:12:01;45.83;;;20.48;;
77722;SDS011;67811;42.656;23.394;2023-06-01T08:14:26;51.72;;;22.10;;
77722;SDS011;67811;42.656;23.394;2023-06-01T08:16:52;47.60;;;23.17;;
77722;SDS011;67811;42.656;23.394;2023-06-01T08:19:17;55.90;;;22.85;;
77722;SDS011;67811;42.656;23.394;2023-06-01T08:21:42;53.63;;;23.25;;
77722;SDS011;67811;42.656;23.394;2023-06-01T08:24:08;63.05;;;22.10;;
77722;SDS011;67811;42.656;23.394;2023-06-01T08:26:34;49.63;;;21.75;;
77722;SDS011;67811;42.656;23.394;2023-06-01T08:28:59;46.67;;;19.98;;
77722;SDS011;67811;42.656;23.394;2023-06-01T08:31:24;50.88;;;21.35;;
77722;SDS011;67811;42.656;23.394;2023-06-01T08:33:50;60.50;;;22.65;;
77722;SDS011;67811;42.656;23.394;2023-06-01T08:36:16;57.58;;;23.52;;
77722;SDS011;67811;42.656;23.394;2023-06-01T08:38:42;45.20;;;21.55;;
77722;SDS011;67811;42.656;23.394;2023-06-01T08:41:17;50.47;;;21.35;;
77722;SDS011;67811;42.656;23.394;2023-06-01T08:43:58;48.72;;;20.95;;
77722;SDS011;67811;42.656;23.394;2023-06-01T08:46:26;55.47;;;21.92;;
77722;SDS011;67811;42.656;23.394;2023-06-01T08:48:53;47.92;;;20.67;;
77722;SDS011;67811;42.656;23.394;2023-06-01T08:51:19;49.72;;;20.67;;
77722;SDS011;67811;42.656;23.394;2023-06-01T08:53:47;59.20;;;20.35;;
77722;SDS011;67811;42.656;23.394;2023-06-01T08:56:14;48.78;;;21.42;;
77722;SDS011;67811;42.656;23.394;2023-06-01T08:58:40;49.67;;;19.42;;
77722;SDS011;67811;42.656;23.394;2023-06-01T09:01:06;51.60;;;20.38;;
77722;SDS011;67811;42.656;23.394;2023-06-01T09:03:31;51.10;;;19.98;;
77722;SDS011;67811;42.656;23.394;2023-06-01T09:05:56;49.03;;;18.70;;
77722;SDS011;67811;42.656;23.394;2023-06-01T09:08:22;49.00;;;21.42;;
77722;SDS011;67811;42.656;23.394;2023-06-01T09:10:49;48.55;;;20.52;;
77722;SDS011;67811;42.656;23.394;2023-06-01T09:13:15;49.80;;;19.02;;
77722;SDS011;67811;42.656;23.394;2023-06-01T09:15:55;44.60;;;17.73;;
77722;SDS011;67811;42.656;23.394;2023-06-01T09:18:21;46.63;;;19.25;;
77722;SDS011;67811;42.656;23.394;2023-06-01T09:20:46;42.47;;;18.08;;
77722;SDS011;67811;42.656;23.394;2023-06-01T09:23:12;41.30;;;16.95;;
77722;SDS011;67811;42.656;23.394;2023-06-01T09:25:48;42.45;;;17.65;;
77722;SDS011;67811;42.656;23.394;2023-06-01T09:31:36;35.75;;;15.93;;
77722;SDS011;67811;42.656;23.394;2023-06-01T09:34:02;40.65;;;17.45;;
77722;SDS011;67811;42.656;23.394;2023-06-01T09:36:28;43.25;;;17.30;;
77722;SDS011;67811;42.656;23.394;2023-06-01T09:39:00;39.53;;;15.70;;
77722;SDS011;67811;42.656;23.394;2023-06-01T09:44:27;32.53;;;15.55;;
77722;SDS011;67811;42.656;23.394;2023-06-01T09:47:00;42.00;;;16.35;;
77722;SDS011;67811;42.656;23.394;2023-06-01T09:54:29;33.45;;;14.60;;
77722;SDS011;67811;42.656;23.394;2023-06-01T09:56:55;32.42;;;13.60;;
77722;SDS011;67811;42.656;23.394;2023-06-01T09:59:21;30.08;;;13.63;;
77722;SDS011;67811;42.656;23.394;2023-06-01T10:01:49;25.17;;;11.80;;
77722;SDS011;67811;42.656;23.394;2023-06-01T10:04:22;29.00;;;12.55;;
77722;SDS011;67811;42.656;23.394;2023-06-01T10:06:52;27.65;;;12.15;;
77722;SDS011;67811;42.656;23.394;2023-06-01T10:09:20;29.20;;;11.13;;
77722;SDS011;67811;42.656;23.394;2023-06-01T10:11:46;25.65;;;11.50;;
77722;SDS011;67811;42.656;23.394;2023-06-01T10:14:13;29.63;;;12.77;;
77722;SDS011;67811;42.656;23.394;2023-06-01T10:16:42;21.70;;;11.07;;
77722;SDS011;67811;42.656;23.394;2023-06-01T10:19:08;24.83;;;10.63;;
77722;SDS011;67811;42.656;23.394;2023-06-01T10:21:35;26.48;;;11.35;;
77722;SDS011;67811;42.656;23.394;2023-06-01T10:24:00;27.23;;;11.38;;
77722;SDS011;67811;42.656;23.394;2023-06-01T10:26:26;24.13;;;11.00;;
77722;SDS011;67811;42.656;23.394;2023-06-01T10:28:53;32.70;;;10.70;;
77722;SDS011;67811;42.656;23.394;2023-06-01T10:31:36;16.73;;;8.85;;
77722;SDS011;67811;42.656;23.394;2023-06-01T10:34:06;19.52;;;8.70;;
77722;SDS011;67811;42.656;23.394;2023-06-01T10:39:28;16.92;;;9.43;;
77722;SDS011;67811;42.656;23.394;2023-06-01T10:41:58;15.07;;;8.73;;
77722;SDS011;67811;42.656;23.394;2023-06-01T10:52:29;19.88;;;8.75;;
77722;SDS011;67811;42.656;23.394;2023-06-01T10:55:18;14.10;;;6.90;;
77722;SDS011;67811;42.656;23.394;2023-06-01T11:02:42;20.33;;;7.00;;
77722;SDS011;67811;42.656;23.394;2023-06-01T11:07:54;16.92;;;6.97;;
77722;SDS011;67811;42.656;23.394;2023-06-01T11:13:15;22.40;;;7.10;;
77722;SDS011;67811;42.656;23.394;2023-06-01T11:16:01;16.67;;;7.00;;
77722;SDS011;67811;42.656;23.394;2023-06-01T11:18:42;15.00;;;6.82;;
77722;SDS011;67811;42.656;23.394;2023-06-01T11:21:09;16.35;;;7.47;;
77722;SDS011;67811;42.656;23.394;2023-06-01T11:23:47;17.83;;;6.18;;
77722;SDS011;67811;42.656;23.394;2023-06-01T11:26:14;20.00;;;6.40;;
77722;SDS011;67811;42.656;23.394;2023-06-01T11:31:08;17.70;;;7.87;;
77722;SDS011;67811;42.656;23.394;2023-06-01T11:33:35;15.18;;;5.72;;
77722;SDS011;67811;42.656;23.394;2023-06-01T11:36:03;14.27;;;6.78;;
77722;SDS011;67811;42.656;23.394;2023-06-01T11:38:38;17.63;;;6.10;;
77722;SDS011;67811;42.656;23.394;2023-06-01T11:41:04;10.20;;;5.13;;
77722;SDS011;67811;42.656;23.394;2023-06-01T11:43:30;16.98;;;6.28;;
77722;SDS011;67811;42.656;23.394;2023-06-01T11:46:02;16.20;;;5.53;;
77722;SDS011;67811;42.656;23.394;2023-06-01T11:48:29;13.32;;;5.00;;
77722;SDS011;67811;42.656;23.394;2023-06-01T11:50:55;14.50;;;6.90;;
77722;SDS011;67811;42.656;23.394;2023-06-01T11:53:21;17.65;;;6.82;;
77722;SDS011;67811;42.656;23.394;2023-06-01T11:55:50;12.38;;;5.75;;
77722;SDS011;67811;42.656;23.394;2023-06-01T12:00:52;16.63;;;6.65;;
77722;SDS011;67811;42.656;23.394;2023-06-01T12:03:18;9.40;;;5.40;;
77722;SDS011;67811;42.656;23.394;2023-06-01T12:05:44;15.63;;;5.88;;
77722;SDS011;67811;42.656;23.394;2023-06-01T12:08:12;18.27;;;7.30;;
77722;SDS011;67811;42.656;23.394;2023-06-01T12:10:38;13.10;;;6.75;;
77722;SDS011;67811;42.656;23.394;2023-06-01T12:13:03;16.42;;;6.95;;
77722;SDS011;67811;42.656;23.394;2023-06-01T12:15:29;13.45;;;6.13;;
77722;SDS011;67811;42.656;23.394;2023-06-01T12:17:55;15.32;;;7.22;;
77722;SDS011;67811;42.656;23.394;2023-06-01T12:20:27;12.05;;;5.93;;
77722;SDS011;67811;42.656;23.394;2023-06-01T12:22:52;13.38;;;5.75;;
77722;SDS011;67811;42.656;23.394;2023-06-01T12:25:17;14.13;;;7.10;;
77722;SDS011;67811;42.656;23.394;2023-06-01T12:27:43;14.60;;;5.68;;
77722;SDS011;67811;42.656;23.394;2023-06-01T12:30:21;10.15;;;5.55;;
77722;SDS011;67811;42.656;23.394;2023-06-01T12:32:46;9.68;;;5.13;;
77722;SDS011;67811;42.656;23.394;2023-06-01T12:35:11;9.82;;;5.63;;
77722;SDS011;67811;42.656;23.394;2023-06-01T12:37:37;14.85;;;6.20;;
77722;SDS011;67811;42.656;23.394;2023-06-01T12:40:02;13.70;;;6.55;;
77722;SDS011;67811;42.656;23.394;2023-06-01T12:42:37;15.95;;;7.35;;
77722;SDS011;67811;42.656;23.394;2023-06-01T12:45:07;17.42;;;5.40;;
77722;SDS011;67811;42.656;23.394;2023-06-01T12:47:37;14.65;;;7.05;;
77722;SDS011;67811;42.656;23.394;2023-06-01T12:50:04;25.45;;;7.10;;
77722;SDS011;67811;42.656;23.394;2023-06-01T12:52:30;13.48;;;6.15;;
77722;SDS011;67811;42.656;23.394;2023-06-01T12:54:56;17.95;;;7.22;;
77722;SDS011;67811;42.656;23.394;2023-06-01T12:57:21;19.83;;;6.80;;
77722;SDS011;67811;42.656;23.394;2023-06-01T12:59:46;17.15;;;7.45;;
77722;SDS011;67811;42.656;23.394;2023-06-01T13:02:11;15.48;;;7.80;;
77722;SDS011;67811;42.656;23.394;2023-06-01T13:04:37;19.48;;;8.52;;
77722;SDS011;67811;42.656;23.394;2023-06-01T13:07:02;20.48;;;8.30;;
77722;SDS011;67811;42.656;23.394;2023-06-01T13:09:27;17.40;;;6.20;;
77722;SDS011;67811;42.656;23.394;2023-06-01T13:11:52;10.50;;;5.38;;
77722;SDS011;67811;42.656;23.394;2023-06-01T13:14:18;17.42;;;6.65;;
77722;SDS011;67811;42.656;23.394;2023-06-01T13:16:43;15.80;;;6.78;;
77722;SDS011;67811;42.656;23.394;2023-06-01T13:19:08;15.15;;;6.28;;
77722;SDS011;67811;42.656;23.394;2023-06-01T13:21:34;12.05;;;5.47;;
77722;SDS011;67811;42.656;23.394;2023-06-01T13:23:59;11.13;;;5.60;;
77722;SDS011;67811;42.656;23.394;2023-06-01T13:26:24;13.55;;;5.70;;
77722;SDS011;67811;42.656;23.394;2023-06-01T13:28:49;11.63;;;5.78;;
77722;SDS011;67811;42.656;23.394;2023-06-01T13:31:15;12.30;;;4.93;;
77722;SDS011;67811;42.656;23.394;2023-06-01T13:33:40;12.82;;;5.50;;
77722;SDS011;67811;42.656;23.394;2023-06-01T13:36:05;13.13;;;5.13;;
77722;SDS011;67811;42.656;23.394;2023-06-01T13:38:31;8.27;;;4.80;;
77722;SDS011;67811;42.656;23.394;2023-06-01T13:40:56;11.38;;;5.07;;
77722;SDS011;67811;42.656;23.394;2023-06-01T13:43:21;10.30;;;4.88;;
77722;SDS011;67811;42.656;23.394;2023-06-01T13:45:46;13.45;;;5.43;;
77722;SDS011;67811;42.656;23.394;2023-06-01T13:48:12;13.95;;;6.05;;
77722;SDS011;67811;42.656;23.394;2023-06-01T13:50:37;9.85;;;4.47;;
77722;SDS011;67811;42.656;23.394;2023-06-01T13:53:02;8.38;;;4.05;;
77722;SDS011;67811;42.656;23.394;2023-06-01T13:55:27;14.43;;;5.05;;
77722;SDS011;67811;42.656;23.394;2023-06-01T13:57:53;10.45;;;4.35;;
77722;SDS011;67811;42.656;23.394;2023-06-01T14:00:18;10.50;;;4.95;;
77722;SDS011;67811;42.656;23.394;2023-06-01T14:02:43;11.73;;;4.97;;
77722;SDS011;67811;42.656;23.394;2023-06-01T14:05:09;9.50;;;4.30;;
77722;SDS011;67811;42.656;23.394;2023-06-01T14:07:34;13.32;;;4.60;;
77722;SDS011;67811;42.656;23.394;2023-06-01T14:09:59;12.15;;;4.82;;
77722;SDS011;67811;42.656;23.394;2023-06-01T14:12:24;10.82;;;4.57;;
77722;SDS011;67811;42.656;23.394;2023-06-01T14:14:50;11.88;;;6.72;;
77722;SDS011;67811;42.656;23.394;2023-06-01T14:17:15;11.50;;;5.88;;
77722;SDS011;67811;42.656;23.394;2023-06-01T14:19:40;9.77;;;6.35;;
77722;SDS011;67811;42.656;23.394;2023-06-01T14:22:05;15.38;;;5.85;;
77722;SDS011;67811;42.656;23.394;2023-06-01T14:24:31;11.20;;;5.78;;
77722;SDS011;67811;42.656;23.394;2023-06-01T14:26:56;8.65;;;4.80;;
77722;SDS011;67811;42.656;23.394;2023-06-01T14:29:21;8.95;;;4.75;;
77722;SDS011;67811;42.656;23.394;2023-06-01T14:31:47;12.30;;;5.40;;
77722;SDS011;67811;42.656;23.394;2023-06-01T14:34:12;16.73;;;5.65;;
77722;SDS011;67811;42.656;23.394;2023-06-01T14:36:37;8.00;;;4.20;;
77722;SDS011;67811;42.656;23.394;2023-06-01T14:39:03;13.20;;;5.18;;
77722;SDS011;67811;42.656;23.394;2023-06-01T14:41:28;12.73;;;6.25;;
77722;SDS011;67811;42.656;23.394;2023-06-01T14:43:53;13.57;;;6.20;;
77722;SDS011;67811;42.656;23.394;2023-06-01T14:46:19;10.43;;;5.32;;
77722;SDS011;67811;42.656;23.394;2023-06-01T14:48:44;11.00;;;4.35;;
77722;SDS011;67811;42.656;23.394;2023-06-01T14:51:09;10.15;;;6.00;;
77722;SDS011;67811;42.656;23.394;2023-06-01T14:53:35;12.88;;;6.13;;
77722;SDS011;67811;42.656;23.394;2023-06-01T14:56:01;16.75;;;6.65;;
77722;SDS011;67811;42.656;23.394;2023-06-01T14:58:26;14.73;;;6.50;;
77722;SDS011;67811;42.656;23.394;2023-06-01T15:00:52;17.38;;;6.95;;
77722;SDS011;67811;42.656;23.394;2023-06-01T15:03:17;15.30;;;7.68;;
77722;SDS011;67811;42.656;23.394;2023-06-01T15:05:42;18.90;;;6.55;;